Time;durP1;ratioP1;P1;durP2;ratioP2;P2;SDS_P1;SDS_P2;PMS_P1;PMS_P2;Temp;Humidity;BMP_temperature;BMP_pressure;BME280_temperature;BME280_humidity;BME280_pressure;Samples;Min_cycle;Max_cycle;Signal;HPM_P1;HPM_P2
2021/12/22 00:02:22;;;;;;;46.90;26.80;;;;;;;-5.30;100.00;102571.03;5003026;28;20347;-59
2021/12/22 00:04:49;;;;;;;49.37;26.43;;;;;;;-5.28;100.00;102572.81;5005262;28;20037;-58
2021/12/22 00:07:16;;;;;;;47.20;25.27;;;;;;;-5.28;100.00;102577.88;4998425;28;20497;-58
2021/12/22 00:09:42;;;;;;;47.10;25.47;;;;;;;-5.27;100.00;102587.28;5007113;28;20034;-59
2021/12/22 00:12:08;;;;;;;43.27;24.47;;;;;;;-5.29;100.00;102587.09;5005041;28;20034;-59
2021/12/22 00:14:33;;;;;;;45.63;26.23;;;;;;;-5.27;100.00;102585.66;5002243;28;20053;-58
2021/12/22 00:16:59;;;;;;;43.63;25.80;;;;;;;-5.28;100.00;102582.94;4999063;28;20546;-59
2021/12/22 00:19:24;;;;;;;46.57;26.63;;;;;;;-5.28;100.00;102572.81;5007505;28;20037;-58
2021/12/22 00:21:49;;;;;;;43.77;26.33;;;;;;;-5.28;100.00;102577.88;4996996;28;20057;-59
2021/12/22 00:24:15;;;;;;;41.63;24.20;;;;;;;-5.29;100.00;102582.06;4999975;28;20390;-58
2021/12/22 00:26:41;;;;;;;42.93;24.77;;;;;;;-5.28;100.00;102585.47;5006062;28;20409;-58
2021/12/22 00:29:08;;;;;;;41.00;25.13;;;;;;;-5.30;100.00;102583.66;5002216;28;20037;-58
2021/12/22 00:31:43;;;;;;;44.73;23.33;;;;;;;-5.32;100.00;102582.56;5000008;28;20165;-58
2021/12/22 00:34:16;;;;;;;42.37;23.93;;;;;;;-5.37;100.00;102586.16;5003597;28;20030;-58
2021/12/22 00:36:43;;;;;;;47.20;26.10;;;;;;;-5.38;100.00;102581.81;5006866;28;20026;-58
2021/12/22 00:39:09;;;;;;;45.53;24.43;;;;;;;-5.40;100.00;102577.28;5002906;28;20018;-58
2021/12/22 00:41:34;;;;;;;49.93;25.40;;;;;;;-5.42;100.00;102570.41;5003335;28;20162;-58
2021/12/22 00:44:00;;;;;;;48.83;26.80;;;;;;;-5.45;100.00;102574.19;4999305;28;20493;-58
2021/12/22 00:46:25;;;;;;;54.17;27.77;;;;;;;-5.45;100.00;102576.72;5006708;28;20034;-58
2021/12/22 00:48:50;;;;;;;48.53;28.13;;;;;;;-5.45;100.00;102584.28;5003802;28;20029;-59
2021/12/22 00:51:16;;;;;;;54.57;26.23;;;;;;;-5.46;100.00;102577.41;5011767;28;20025;-56
2021/12/22 00:53:41;;;;;;;46.80;25.63;;;;;;;-5.46;100.00;102582.47;5011128;28;20052;-58
2021/12/22 00:56:07;;;;;;;48.60;26.03;;;;;;;-5.47;100.00;102580.66;5010327;28;20101;-59
2021/12/22 00:58:33;;;;;;;46.00;25.20;;;;;;;-5.47;100.00;102581.53;5010047;28;20481;-59
2021/12/22 01:00:59;;;;;;;42.00;25.13;;;;;;;-5.49;100.00;102582.09;5010891;28;20021;-59
2021/12/22 01:03:26;;;;;;;45.57;24.63;;;;;;;-5.53;100.00;102585.84;5009678;28;20026;-58
2021/12/22 01:05:52;;;;;;;46.03;25.27;;;;;;;-5.56;100.00;102580.41;5008890;28;20033;-57
2021/12/22 01:08:18;;;;;;;43.77;26.53;;;;;;;-5.60;100.00;102584.19;5011008;28;20036;-58
2021/12/22 01:10:44;;;;;;;41.40;25.37;;;;;;;-5.63;100.00;102582.88;5006918;28;20050;-56
2021/12/22 01:13:10;;;;;;;47.03;25.53;;;;;;;-5.63;100.00;102587.94;5009941;28;20061;-58
2021/12/22 01:15:37;;;;;;;39.83;24.60;;;;;;;-5.66;100.00;102583.41;5009635;28;20037;-58
2021/12/22 01:18:12;;;;;;;50.00;26.57;;;;;;;-5.65;100.00;102582.69;5009686;28;20026;-58
2021/12/22 01:20:56;;;;;;;52.13;25.50;;;;;;;-5.68;100.00;102582.28;5009675;28;20068;-57
2021/12/22 01:23:22;;;;;;;47.73;25.80;;;;;;;-5.72;100.00;102572.53;5008258;28;20489;-57
2021/12/22 01:25:48;;;;;;;47.47;27.57;;;;;;;-5.74;100.00;102568.91;5006179;28;20085;-57
2021/12/22 01:28:15;;;;;;;50.23;26.53;;;;;;;-5.75;100.00;102568.00;5010121;28;20029;-58
2021/12/22 01:30:46;;;;;;;51.03;26.53;;;;;;;-5.76;100.00;102570.31;5007073;28;20044;-57
2021/12/22 01:33:13;;;;;;;51.22;28.15;;;;;;;-5.74;100.00;102568.91;5005716;28;20071;-57
2021/12/22 01:35:39;;;;;;;43.43;25.43;;;;;;;-5.76;100.00;102565.28;5005645;28;20445;-58
2021/12/22 01:38:05;;;;;;;49.13;27.43;;;;;;;-5.76;100.00;102566.19;5003233;28;20026;-58
2021/12/22 01:40:34;;;;;;;51.33;26.93;;;;;;;-5.75;100.00;102572.13;5001931;28;20033;-59
2021/12/22 01:43:02;;;;;;;47.50;25.47;;;;;;;-5.74;100.00;102584.06;5008899;28;20495;-58
2021/12/22 01:45:53;;;;;;;49.30;27.20;;;;;;;-5.76;100.00;102575.38;5007722;28;20371;-58
2021/12/22 01:51:24;;;;;;;56.77;28.60;;;;;;;-5.80;100.00;102567.41;5006133;28;20089;-58
2021/12/22 01:53:49;;;;;;;54.37;28.77;;;;;;;-5.82;100.00;102570.44;5007974;28;20046;-58
2021/12/22 01:58:47;;;;;;;61.03;29.80;;;;;;;-5.88;100.00;102562.13;5006053;28;20049;-57
2021/12/22 02:01:15;;;;;;;56.30;28.57;;;;;;;-5.90;100.00;102556.88;5007085;28;20331;-58
2021/12/22 02:03:42;;;;;;;56.77;29.00;;;;;;;-5.90;100.00;102566.97;5006634;28;20049;-57
2021/12/22 02:06:08;;;;;;;50.03;27.90;;;;;;;-5.92;100.00;102565.88;5007347;28;20093;-57
2021/12/22 02:08:38;;;;;;;54.30;28.27;;;;;;;-5.95;100.00;102563.84;5008065;28;20417;-58
2021/12/22 02:11:05;;;;;;;49.03;26.13;;;;;;;-5.92;100.00;102565.88;5006825;28;20062;-57
2021/12/22 02:13:35;;;;;;;47.57;27.47;;;;;;;-5.90;100.00;102577.97;5006626;28;20029;-58
2021/12/22 02:16:09;;;;;;;45.83;26.23;;;;;;;-5.91;100.00;102575.25;5006896;28;20057;-56
2021/12/22 02:18:45;;;;;;;47.03;27.23;;;;;;;-5.90;100.00;102570.38;5006214;28;20042;-58
2021/12/22 02:21:10;;;;;;;48.13;26.23;;;;;;;-5.89;100.00;102576.34;5003462;28;20461;-57
2021/12/22 02:23:36;;;;;;;52.80;26.43;;;;;;;-5.87;100.00;102580.00;5009077;28;20121;-58
2021/12/22 02:26:12;;;;;;;41.23;23.47;;;;;;;-5.86;100.00;102583.44;5007493;28;20410;-59
2021/12/22 02:28:41;;;;;;;51.23;28.73;;;;;;;-5.86;100.00;102589.38;5008030;28;20030;-59
2021/12/22 02:31:07;;;;;;;50.10;25.83;;;;;;;-5.87;100.00;102579.06;5004788;28;20041;-59
2021/12/22 02:33:36;;;;;;;50.87;27.10;;;;;;;-5.87;100.00;102585.03;5005727;28;20048;-59
2021/12/22 02:38:31;;;;;;;41.93;24.47;;;;;;;-5.89;100.00;102573.84;5004070;28;20037;-60
2021/12/22 02:40:56;;;;;;;51.40;26.57;;;;;;;-5.89;100.00;102578.88;5005620;28;20025;-59
2021/12/22 02:43:24;;;;;;;47.37;26.70;;;;;;;-5.86;100.00;102579.25;5005566;28;20597;-59
2021/12/22 02:45:51;;;;;;;45.27;24.83;;;;;;;-5.88;100.00;102572.22;5006200;28;20466;-59
2021/12/22 02:48:17;;;;;;;44.40;24.67;;;;;;;-5.91;100.00;102567.66;5005574;28;20022;-60
2021/12/22 02:50:43;;;;;;;49.07;26.63;;;;;;;-5.91;100.00;102572.72;5006489;28;20029;-60
2021/12/22 02:53:12;;;;;;;43.83;24.93;;;;;;;-5.91;100.00;102573.63;5001275;28;20045;-59
2021/12/22 02:55:51;;;;;;;47.43;25.67;;;;;;;-5.91;100.00;102576.16;5007549;28;20017;-59
2021/12/22 02:58:33;;;;;;;40.47;24.43;;;;;;;-5.93;100.00;102561.50;5005394;28;20116;-59
2021/12/22 03:06:14;;;;;;;44.60;23.33;;;;;;;-5.95;100.00;102562.94;4997324;28;20037;-59
2021/12/22 03:08:39;;;;;;;47.87;24.63;;;;;;;-5.95;100.00;102565.47;5005372;28;20578;-59
2021/12/22 03:11:05;;;;;;;44.83;23.87;;;;;;;-5.94;100.00;102573.25;5004358;28;20049;-59
2021/12/22 03:13:31;;;;;;;43.33;24.50;;;;;;;-5.95;100.00;102575.56;5006110;28;20540;-58
2021/12/22 03:15:57;;;;;;;42.40;23.97;;;;;;;-5.97;100.00;102579.53;5000707;28;20518;-59
2021/12/22 03:18:22;;;;;;;40.13;23.03;;;;;;;-5.96;100.00;102577.22;5007834;28;20105;-58
2021/12/22 03:20:55;;;;;;;39.87;22.83;;;;;;;-5.96;100.00;102587.31;5008863;28;20053;-58
2021/12/22 03:23:21;;;;;;;47.63;24.43;;;;;;;-5.96;100.00;102586.38;5007180;28;20033;-59
2021/12/22 03:25:46;;;;;;;40.53;23.67;;;;;;;-5.96;100.00;102583.88;5006158;28;20032;-58
2021/12/22 03:28:12;;;;;;;40.57;22.97;;;;;;;-6.00;100.00;102590.16;5007826;28;20026;-58
2021/12/22 03:30:37;;;;;;;39.57;23.23;;;;;;;-6.02;100.00;102596.63;4999177;28;20079;-59
2021/12/22 03:33:03;;;;;;;40.53;22.70;;;;;;;-6.03;100.00;102592.28;5003878;28;20022;-58
2021/12/22 03:35:28;;;;;;;34.57;21.63;;;;;;;-6.04;100.00;102593.91;5005059;28;20033;-58
2021/12/22 03:37:57;;;;;;;37.73;23.33;;;;;;;-6.03;100.00;102590.66;5008256;28;20022;-58
2021/12/22 03:40:25;;;;;;;42.60;23.70;;;;;;;-6.02;100.00;102591.56;5009033;28;20053;-59
2021/12/22 03:42:50;;;;;;;38.67;23.67;;;;;;;-6.06;100.00;102595.34;4999060;28;20390;-59
2021/12/22 03:45:16;;;;;;;39.53;21.73;;;;;;;-6.08;100.00;102591.72;5003846;28;20045;-57
2021/12/22 03:47:43;;;;;;;40.73;22.40;;;;;;;-6.11;100.00;102591.34;5002864;28;20049;-59
2021/12/22 03:50:13;;;;;;;38.67;23.33;;;;;;;-6.15;100.00;102587.50;5005838;28;20084;-60
2021/12/22 03:52:39;;;;;;;38.93;23.10;;;;;;;-6.18;100.00;102583.69;5007592;28;20112;-60
2021/12/22 03:55:05;;;;;;;41.43;24.07;;;;;;;-6.20;100.00;102577.53;5005780;28;20034;-59
2021/12/22 03:57:31;;;;;;;39.73;22.03;;;;;;;-6.21;100.00;102575.72;5002315;28;20034;-58
2021/12/22 03:59:58;;;;;;;43.80;23.27;;;;;;;-6.22;100.00;102576.44;5008208;28;20512;-58
2021/12/22 04:02:24;;;;;;;45.30;24.43;;;;;;;-6.22;100.00;102576.44;5008740;28;20429;-59
2021/12/22 04:04:50;;;;;;;38.77;22.30;;;;;;;-6.22;100.00;102581.50;5004962;28;20030;-60
2021/12/22 04:07:17;;;;;;;39.60;21.47;;;;;;;-6.23;100.00;102575.53;5004455;28;20457;-57
2021/12/22 04:09:43;;;;;;;40.70;22.37;;;;;;;-6.22;100.00;102584.03;5000736;28;20054;-58
2021/12/22 04:12:09;;;;;;;37.83;21.13;;;;;;;-6.24;100.00;102575.34;5004290;28;20021;-57
2021/12/22 04:14:34;;;;;;;39.23;22.50;;;;;;;-6.26;100.00;102575.16;5006443;28;20556;-59
2021/12/22 04:17:00;;;;;;;40.33;22.60;;;;;;;-6.28;100.00;102576.56;5002536;28;20057;-59
2021/12/22 04:19:25;;;;;;;39.67;22.13;;;;;;;-6.30;100.00;102573.84;5002902;28;20053;-57
2021/12/22 04:21:51;;;;;;;41.97;21.83;;;;;;;-6.32;100.00;102571.81;5007899;28;20466;-59
2021/12/22 04:24:19;;;;;;;40.20;22.67;;;;;;;-6.33;100.00;102573.44;5004343;28;20033;-58
2021/12/22 04:26:44;;;;;;;42.17;23.80;;;;;;;-6.33;100.00;102568.38;5011613;28;20067;-59
2021/12/22 04:29:11;;;;;;;39.97;23.07;;;;;;;-6.31;100.00;102571.09;5007594;28;20053;-57
2021/12/22 04:31:36;;;;;;;41.33;23.73;;;;;;;-6.29;100.00;102562.13;5011957;28;20034;-58
2021/12/22 04:34:04;;;;;;;38.83;20.53;;;;;;;-6.31;100.00;102561.94;5011853;28;20032;-59
2021/12/22 04:36:30;;;;;;;39.80;20.07;;;;;;;-6.28;100.00;102561.44;5011740;28;20505;-59
2021/12/22 04:38:57;;;;;;;38.57;21.80;;;;;;;-6.28;100.00;102562.31;5011518;28;20049;-58
2021/12/22 04:41:22;;;;;;;42.40;21.87;;;;;;;-6.27;100.00;102553.13;5011585;28;20034;-57
2021/12/22 04:43:47;;;;;;;39.10;21.03;;;;;;;-6.28;100.00;102547.16;5011167;28;20042;-58
2021/12/22 04:46:13;;;;;;;38.77;20.93;;;;;;;-6.33;100.00;102550.72;5011725;28;20080;-59
2021/12/22 04:48:38;;;;;;;38.53;19.33;;;;;;;-6.31;100.00;102554.34;5010118;28;20505;-57
2021/12/22 04:51:13;;;;;;;34.60;18.93;;;;;;;-6.31;100.00;102546.78;5011537;28;20026;-59
2021/12/22 04:53:51;;;;;;;40.20;20.70;;;;;;;-6.32;100.00;102550.03;5009438;28;20115;-58
2021/12/22 04:56:17;;;;;;;36.27;22.17;;;;;;;-6.34;100.00;102548.91;5009286;28;20456;-59
2021/12/22 04:58:42;;;;;;;38.83;21.17;;;;;;;-6.35;100.00;102544.56;5011103;28;20112;-57
2021/12/22 05:01:07;;;;;;;36.37;20.83;;;;;;;-6.33;100.00;102543.16;5008994;28;20034;-57
2021/12/22 05:03:33;;;;;;;35.40;21.60;;;;;;;-6.31;100.00;102544.25;5009862;28;20030;-61
2021/12/22 05:05:58;;;;;;;40.33;21.73;;;;;;;-6.28;100.00;102553.84;5007812;28;20069;-59
2021/12/22 05:08:23;;;;;;;33.57;19.83;;;;;;;-6.26;100.00;102544.88;5010960;28;20080;-59
2021/12/22 05:10:48;;;;;;;37.27;20.67;;;;;;;-6.23;100.00;102544.34;5008872;28;20066;-58
2021/12/22 05:13:14;;;;;;;37.97;21.10;;;;;;;-6.21;100.00;102543.81;5009374;28;20461;-58
2021/12/22 05:15:39;;;;;;;37.50;20.70;;;;;;;-6.20;100.00;102538.06;5007694;28;20025;-57
2021/12/22 05:18:23;;;;;;;38.33;20.37;;;;;;;-6.16;100.00;102536.81;5008326;28;20026;-58
2021/12/22 05:20:50;;;;;;;36.50;20.13;;;;;;;-6.16;100.00;102529.25;5007764;28;20399;-57
2021/12/22 05:23:16;;;;;;;35.50;20.80;;;;;;;-6.15;100.00;102529.44;5010609;28;20021;-59
2021/12/22 05:25:42;;;;;;;39.37;20.40;;;;;;;-6.11;100.00;102539.91;5007131;28;20038;-57
2021/12/22 05:28:07;;;;;;;35.73;20.07;;;;;;;-6.10;100.00;102536.69;5010686;28;20030;-59
2021/12/22 05:30:32;;;;;;;37.50;19.70;;;;;;;-6.10;100.00;102540.16;5007474;28;20034;-57
2021/12/22 05:32:58;;;;;;;35.00;20.20;;;;;;;-6.10;100.00;102547.72;5007574;28;20385;-59
2021/12/22 05:35:23;;;;;;;36.17;18.97;;;;;;;-6.08;100.00;102535.28;5005394;28;20040;-58
2021/12/22 05:37:49;;;;;;;35.87;18.60;;;;;;;-6.09;100.00;102534.38;5003834;28;20088;-59
2021/12/22 05:40:14;;;;;;;34.17;18.97;;;;;;;-6.08;100.00;102541.22;5006913;28;20017;-59
2021/12/22 05:42:42;;;;;;;33.20;19.70;;;;;;;-6.05;100.00;102530.63;5009293;28;20409;-57
2021/12/22 05:45:08;;;;;;;37.00;20.53;;;;;;;-6.03;100.00;102522.47;5007184;28;20049;-59
2021/12/22 05:47:33;;;;;;;32.03;19.53;;;;;;;-6.02;100.00;102519.25;5000833;28;20017;-59
2021/12/22 05:49:58;;;;;;;34.50;18.83;;;;;;;-5.99;100.00;102518.72;5003770;28;20080;-59
2021/12/22 05:52:24;;;;;;;34.23;18.77;;;;;;;-5.98;100.00;102512.06;5001708;28;20046;-59
2021/12/22 05:54:49;;;;;;;34.13;19.07;;;;;;;-5.96;100.00;102516.59;5008776;28;20026;-57
2021/12/22 05:57:15;;;;;;;35.33;21.27;;;;;;;-5.94;100.00;102514.25;5008147;28;20100;-57
2021/12/22 05:59:40;;;;;;;32.30;20.37;;;;;;;-5.94;100.00;102516.78;5007788;28;20474;-58
2021/12/22 06:02:05;;;;;;;32.70;19.63;;;;;;;-5.93;100.00;102516.06;5005250;28;20032;-58
2021/12/22 06:04:31;;;;;;;34.27;18.80;;;;;;;-5.94;100.00;102511.75;5007257;28;20474;-59
2021/12/22 06:06:56;;;;;;;33.80;17.60;;;;;;;-5.95;100.00;102510.81;5010116;28;20037;-57
2021/12/22 06:09:21;;;;;;;30.10;17.70;;;;;;;-5.94;100.00;102509.22;5010220;28;20084;-57
2021/12/22 06:11:46;;;;;;;32.10;19.60;;;;;;;-5.94;100.00;102514.25;5005549;28;20474;-59
2021/12/22 06:14:12;;;;;;;29.40;17.07;;;;;;;-5.94;100.00;102514.25;5010043;28;20639;-58
2021/12/22 06:16:37;;;;;;;33.43;17.33;;;;;;;-5.94;100.00;102520.22;5009567;28;20057;-58
2021/12/22 06:19:07;;;;;;;29.03;17.60;;;;;;;-5.93;100.00;102523.63;5008308;28;20033;-58
2021/12/22 06:21:33;;;;;;;29.85;16.65;;;;;;;-5.94;100.00;102524.38;5006024;28;20433;-58
2021/12/22 06:23:58;;;;;;;29.13;16.57;;;;;;;-5.96;100.00;102523.25;5008135;28;20025;-58
2021/12/22 06:26:24;;;;;;;29.63;16.60;;;;;;;-5.98;100.00;102522.16;5008735;28;20091;-57
2021/12/22 06:28:50;;;;;;;32.33;17.47;;;;;;;-6.01;100.00;102522.69;5008663;28;20037;-58
2021/12/22 06:31:15;;;;;;;30.77;16.53;;;;;;;-6.03;100.00;102527.53;5009516;28;20390;-57
2021/12/22 06:33:40;;;;;;;27.67;17.03;;;;;;;-6.02;100.00;102529.34;5006823;28;20017;-58
2021/12/22 06:36:06;;;;;;;30.80;17.07;;;;;;;-6.04;100.00;102523.19;5007454;28;20048;-57
2021/12/22 06:38:32;;;;;;;26.13;15.80;;;;;;;-6.08;100.00;102518.50;5008885;28;20261;-57
2021/12/22 06:40:59;;;;;;;30.17;16.43;;;;;;;-6.09;100.00;102519.22;5008632;28;20041;-58
2021/12/22 06:43:24;;;;;;;29.03;15.97;;;;;;;-6.09;100.00;102524.28;5008862;28;20239;-59
2021/12/22 06:45:49;;;;;;;28.80;16.33;;;;;;;-6.09;100.00;102529.31;5008879;28;20542;-59
2021/12/22 06:48:15;;;;;;;23.63;15.40;;;;;;;-6.12;100.00;102528.94;5002737;28;20534;-57
2021/12/22 06:50:40;;;;;;;29.13;16.13;;;;;;;-6.11;100.00;102525.69;5009725;28;20029;-57
2021/12/22 06:53:06;;;;;;;26.47;15.13;;;;;;;-6.11;100.00;102530.75;5000762;28;20418;-59
2021/12/22 06:55:32;;;;;;;25.90;16.00;;;;;;;-6.10;100.00;102532.56;5010725;28;20033;-57
2021/12/22 06:57:59;;;;;;;25.40;15.57;;;;;;;-6.14;100.00;102535.41;5008120;28;20034;-57
2021/12/22 07:00:24;;;;;;;27.40;15.00;;;;;;;-6.15;100.00;102536.09;5010135;28;20037;-58
2021/12/22 07:02:50;;;;;;;28.73;16.03;;;;;;;-6.17;100.00;102540.97;5010163;28;20107;-59
2021/12/22 07:05:15;;;;;;;24.57;14.10;;;;;;;-6.23;100.00;102537.69;5010553;28;20068;-58
2021/12/22 07:07:40;;;;;;;25.00;14.07;;;;;;;-6.22;100.00;102536.06;5010701;28;20040;-58
2021/12/22 07:10:08;;;;;;;29.37;16.07;;;;;;;-6.23;100.00;102536.75;5008578;28;20057;-58
2021/12/22 07:12:42;;;;;;;24.97;14.97;;;;;;;-6.23;100.00;102535.16;5008880;28;20441;-56
2021/12/22 07:15:10;;;;;;;27.03;15.03;;;;;;;-6.23;100.00;102529.19;5006716;28;20040;-56
2021/12/22 07:17:36;;;;;;;21.47;14.53;;;;;;;-6.27;100.00;102528.81;5009259;28;20037;-57
2021/12/22 07:20:05;;;;;;;21.77;14.93;;;;;;;-6.29;100.00;102525.16;5004802;28;20041;-58
2021/12/22 07:22:31;;;;;;;26.57;14.63;;;;;;;-6.29;100.00;102525.16;5009335;28;20042;-58
2021/12/22 07:24:56;;;;;;;27.60;14.83;;;;;;;-6.30;100.00;102519.94;5007497;28;20136;-59
2021/12/22 07:27:21;;;;;;;20.37;13.60;;;;;;;-6.31;100.00;102524.06;5006386;28;20541;-58
2021/12/22 07:29:47;;;;;;;24.13;13.63;;;;;;;-6.29;100.00;102515.06;5006623;28;20409;-57
2021/12/22 07:32:12;;;;;;;25.43;15.23;;;;;;;-6.25;100.00;102530.59;5008628;28;20474;-59
2021/12/22 07:34:46;;;;;;;23.80;14.73;;;;;;;-6.23;100.00;102526.66;5008896;28;20061;-59
2021/12/22 07:37:18;;;;;;;23.27;14.13;;;;;;;-6.18;100.00;102528.16;5008803;28;20073;-58
2021/12/22 07:39:44;;;;;;;22.87;14.60;;;;;;;-6.17;100.00;102523.28;5008876;28;20500;-59
2021/12/22 07:42:09;;;;;;;24.60;14.53;;;;;;;-6.16;100.00;102524.22;5008365;28;20280;-59
2021/12/22 07:44:34;;;;;;;23.80;14.40;;;;;;;-6.13;100.00;102526.22;5008213;28;20112;-58
2021/12/22 07:47:00;;;;;;;19.83;14.07;;;;;;;-6.14;100.00;102525.31;5008880;28;20035;-58
2021/12/22 07:49:25;;;;;;;20.53;13.10;;;;;;;-6.12;100.00;102526.41;5008517;28;20044;-57
2021/12/22 07:51:50;;;;;;;22.50;13.73;;;;;;;-6.08;100.00;102520.13;5008616;28;20087;-58
2021/12/22 07:54:16;;;;;;;21.13;12.97;;;;;;;-6.08;100.00;102518.50;5007681;28;20463;-58
2021/12/22 07:56:41;;;;;;;20.20;13.60;;;;;;;-6.04;100.00;102524.81;5008853;28;20037;-58
2021/12/22 07:59:06;;;;;;;23.40;13.73;;;;;;;-6.05;100.00;102521.41;5009982;28;20386;-57
2021/12/22 08:01:32;;;;;;;21.23;13.50;;;;;;;-6.03;100.00;102525.00;5010819;28;20120;-57
2021/12/22 08:03:58;;;;;;;19.93;13.87;;;;;;;-5.99;100.00;102523.75;5012308;28;20107;-57
2021/12/22 08:06:24;;;;;;;25.33;14.77;;;;;;;-5.97;100.00;102517.28;5012413;28;20080;-57
2021/12/22 08:08:49;;;;;;;20.70;14.43;;;;;;;-5.94;100.00;102525.28;5012466;28;20044;-56
2021/12/22 08:11:14;;;;;;;20.60;14.10;;;;;;;-5.91;100.00;102524.75;5012117;28;20034;-58
2021/12/22 08:13:40;;;;;;;20.37;13.60;;;;;;;-5.90;100.00;102514.81;5012383;28;20414;-58
2021/12/22 08:16:05;;;;;;;20.43;13.57;;;;;;;-5.86;100.00;102518.66;5012131;28;20485;-58
2021/12/22 08:18:30;;;;;;;20.40;13.40;;;;;;;-5.83;100.00;102513.97;5011630;28;20524;-58
2021/12/22 08:24:18;;;;;;;20.00;12.53;;;;;;;-5.70;100.00;102507.97;5010104;28;20044;-58
2021/12/22 08:26:43;;;;;;;22.70;13.67;;;;;;;-5.67;100.00;102505.81;5012461;28;20042;-57
2021/12/22 08:29:09;;;;;;;21.83;13.90;;;;;;;-5.60;100.00;102510.91;5012853;28;20034;-58
2021/12/22 08:31:34;;;;;;;17.70;12.63;;;;;;;-5.54;100.00;102515.81;5010903;28;20065;-56
2021/12/22 08:34:00;;;;;;;21.47;13.40;;;;;;;-5.49;100.00;102509.72;5012345;28;20030;-58
2021/12/22 08:39:11;;;;;;;21.97;13.53;;;;;;;-5.37;100.00;102512.84;5012611;28;20044;-57
2021/12/22 08:41:40;;;;;;;24.60;14.07;;;;;;;-5.32;100.00;102510.88;5011957;28;20489;-57
2021/12/22 08:44:08;;;;;;;25.83;15.83;;;;;;;-5.25;100.00;102512.56;5012347;28;20037;-57
2021/12/22 08:46:36;;;;;;;20.73;13.87;;;;;;;-5.19;100.00;102503.19;5011910;28;20033;-57
2021/12/22 08:49:04;;;;;;;18.83;13.17;;;;;;;-5.12;100.00;102510.78;5012043;28;20038;-59
2021/12/22 08:51:30;;;;;;;17.97;13.77;;;;;;;-5.03;100.00;102511.00;5010910;28;20493;-58
2021/12/22 08:53:55;;;;;;;21.93;13.20;;;;;;;-4.90;100.00;102512.50;5011457;28;20053;-58
2021/12/22 08:56:22;;;;;;;19.67;13.23;;;;;;;-4.83;100.00;102510.91;5012330;28;20037;-58
2021/12/22 08:58:48;;;;;;;22.13;13.33;;;;;;;-4.77;100.00;102518.34;5012078;28;20034;-58
2021/12/22 09:01:13;;;;;;;17.33;13.17;;;;;;;-4.73;100.00;102517.09;5007666;28;20033;-59
2021/12/22 09:03:39;;;;;;;17.87;13.33;;;;;;;-4.71;100.00;102520.69;5010526;28;20030;-57
2021/12/22 09:06:04;;;;;;;24.70;14.33;;;;;;;-4.73;100.00;102514.56;5010683;28;20060;-57
2021/12/22 09:08:30;;;;;;;20.80;14.00;;;;;;;-4.72;100.00;102517.28;5007707;28;20160;-59
2021/12/22 09:10:55;;;;;;;21.03;14.37;;;;;;;-4.72;100.00;102516.38;5011849;28;20114;-59
2021/12/22 09:13:21;;;;;;;25.00;14.80;;;;;;;-4.70;100.00;102512.41;5011889;28;20026;-58
2021/12/22 09:15:47;;;;;;;23.03;14.43;;;;;;;-4.71;100.00;102518.16;5011060;28;20027;-59
2021/12/22 09:18:13;;;;;;;17.97;14.43;;;;;;;-4.65;100.00;102516.38;5011621;28;20084;-57
2021/12/22 09:20:39;;;;;;;24.33;14.87;;;;;;;-4.64;100.00;102513.13;5006455;28;20164;-57
2021/12/22 09:23:04;;;;;;;17.43;13.53;;;;;;;-4.60;100.00;102504.28;5011604;28;20034;-58
2021/12/22 09:25:30;;;;;;;20.67;15.13;;;;;;;-4.56;100.00;102505.56;5011513;28;20037;-58
2021/12/22 09:27:58;;;;;;;20.00;13.03;;;;;;;-4.52;100.00;102507.75;5011534;28;20025;-59
2021/12/22 09:30:23;;;;;;;19.10;13.43;;;;;;;-4.50;100.00;102509.75;5009532;28;20044;-59
2021/12/22 09:32:49;;;;;;;18.00;13.37;;;;;;;-4.44;100.00;102517.16;5011129;28;20022;-58
2021/12/22 09:35:14;;;;;;;21.93;14.13;;;;;;;-4.41;100.00;102511.56;5011196;28;20061;-58
2021/12/22 09:37:40;;;;;;;22.67;14.43;;;;;;;-4.37;100.00;102517.16;5008890;28;20486;-57
2021/12/22 09:40:06;;;;;;;19.90;13.67;;;;;;;-4.30;100.00;102507.78;5010123;28;20034;-58
2021/12/22 09:42:32;;;;;;;19.27;14.00;;;;;;;-4.27;100.00;102500.53;5010421;28;20034;-58
2021/12/22 09:45:00;;;;;;;18.43;13.37;;;;;;;-4.24;100.00;102504.34;5010735;28;20036;-59
2021/12/22 09:47:30;;;;;;;18.07;12.97;;;;;;;-4.15;100.00;102498.53;5011010;28;20029;-58
2021/12/22 09:52:30;;;;;;;18.87;13.53;;;;;;;-4.01;100.00;102496.03;5010421;28;20033;-58
2021/12/22 09:54:59;;;;;;;15.97;12.90;;;;;;;-3.99;100.00;102491.13;5010736;28;20053;-59
2021/12/22 09:57:26;;;;;;;18.40;12.90;;;;;;;-3.94;100.00;102486.63;5010698;28;20377;-58
2021/12/22 09:59:53;;;;;;;18.30;13.80;;;;;;;-3.89;100.00;102490.59;5009707;28;20468;-58
2021/12/22 10:02:21;;;;;;;23.00;14.07;;;;;;;-3.79;100.00;102496.00;5009015;28;20510;-58
2021/12/22 10:04:46;;;;;;;20.27;13.80;;;;;;;-3.70;100.00;102500.34;5009249;28;20042;-58
2021/12/22 10:07:19;;;;;;;21.23;13.67;;;;;;;-3.63;100.00;102488.56;5008242;28;20485;-58
2021/12/22 10:09:45;;;;;;;18.53;12.67;;;;;;;-3.57;100.00;102485.84;5009851;28;20076;-59
2021/12/22 10:12:22;;;;;;;17.70;14.30;;;;;;;-3.51;100.00;102485.66;5009623;28;20037;-58
2021/12/22 10:14:56;;;;;;;15.50;12.27;;;;;;;-3.52;100.00;102484.75;5009297;28;20034;-58
2021/12/22 10:17:38;;;;;;;16.60;13.73;;;;;;;-3.48;100.00;102486.00;5004010;28;20067;-59
2021/12/22 10:20:15;;;;;;;16.13;12.70;;;;;;;-3.44;100.00;102483.09;5007750;28;20033;-58
2021/12/22 10:22:44;;;;;;;17.27;13.53;;;;;;;-3.36;100.00;102476.34;5008858;28;20117;-58
2021/12/22 10:25:12;;;;;;;19.27;13.27;;;;;;;-3.30;100.00;102476.16;5005945;28;20034;-58
2021/12/22 10:27:43;;;;;;;18.60;12.93;;;;;;;-3.24;100.00;102479.41;5009076;28;20474;-58
2021/12/22 10:30:34;;;;;;;21.37;14.03;;;;;;;-3.16;100.00;102478.66;5009674;28;20037;-59
2021/12/22 10:33:16;;;;;;;22.25;15.75;;;;;;;-3.11;100.00;102478.28;5005944;28;20254;-57
2021/12/22 10:39:30;;;;;;;17.00;14.93;;;;;;;-2.99;100.00;102471.16;5008878;28;20036;-59
2021/12/22 10:42:08;;;;;;;18.27;16.10;;;;;;;-2.90;100.00;102472.19;5006029;28;20033;-58
2021/12/22 10:44:40;;;;;;;18.93;15.37;;;;;;;-2.82;100.00;102460.34;5009936;28;20026;-59
2021/12/22 10:47:15;;;;;;;18.97;13.20;;;;;;;-2.76;100.00;102463.59;5006566;28;20521;-59
2021/12/22 10:49:40;;;;;;;17.80;14.53;;;;;;;-2.69;100.00;102461.00;5003277;28;20154;-58
2021/12/22 10:52:05;;;;;;;16.13;14.07;;;;;;;-2.60;100.00;102445.00;5008345;28;20172;-57
2021/12/22 10:54:34;;;;;;;19.37;14.07;;;;;;;-2.51;100.00;102450.19;5007771;28;20387;-58
2021/12/22 10:57:02;;;;;;;15.87;12.83;;;;;;;-2.55;100.00;102439.69;5005352;28;20160;-59
2021/12/22 10:59:39;;;;;;;16.63;12.20;;;;;;;-2.49;100.00;102444.56;5006955;28;20029;-58
2021/12/22 11:02:08;;;;;;;14.63;12.37;;;;;;;-2.42;100.00;102436.88;5007704;28;20038;-59
2021/12/22 11:04:34;;;;;;;15.23;12.17;;;;;;;-2.38;100.00;102429.59;5006869;28;20030;-59
2021/12/22 11:07:14;;;;;;;14.93;11.23;;;;;;;-2.37;100.00;102433.94;5004840;28;20064;-57
2021/12/22 11:09:40;;;;;;;15.93;11.30;;;;;;;-2.33;100.00;102431.91;5003288;28;20069;-58
2021/12/22 11:12:06;;;;;;;16.87;11.63;;;;;;;-2.28;100.00;102427.31;5008154;28;20053;-59
2021/12/22 11:14:35;;;;;;;14.37;10.53;;;;;;;-2.21;100.00;102417.09;5004431;28;20185;-57
2021/12/22 11:17:07;;;;;;;17.37;11.90;;;;;;;-2.06;100.00;102429.69;5005700;28;20022;-58
2021/12/22 11:19:32;;;;;;;;;;;;;;;-1.97;100.00;102423.06;5003650;28;20034;-59
2021/12/22 11:24:38;;;;;;;13.50;10.60;;;;;;;-1.76;100.00;102422.69;5003362;28;20522;-57
2021/12/22 11:27:05;;;;;;;13.90;10.40;;;;;;;-1.54;100.00;102422.41;5006173;28;20367;-58
2021/12/22 11:29:33;;;;;;;14.43;9.27;;;;;;;-1.42;100.00;102416.09;5008221;28;20046;-58
2021/12/22 11:32:01;;;;;;;9.93;8.47;;;;;;;-1.34;100.00;102411.84;5008206;28;20018;-58